createdAt,value
2019-03-21T00:01:39.796Z,15.27
2019-03-21T00:06:25.980Z,10.50
2019-03-21T00:11:37.342Z,9.00
2019-03-21T00:16:24.202Z,13.33
2019-03-21T00:21:10.459Z,11.93
2019-03-21T00:25:56.876Z,10.77
2019-03-21T00:30:43.235Z,12.20
2019-03-21T00:35:29.713Z,14.57
2019-03-21T00:40:18.615Z,12.37
2019-03-21T00:45:05.130Z,12.93
2019-03-21T00:49:51.525Z,16.90
2019-03-21T00:54:37.758Z,15.57
2019-03-21T00:59:24.081Z,15.50
2019-03-21T01:04:10.274Z,13.30
2019-03-21T01:08:56.603Z,13.00
2019-03-21T01:13:42.859Z,16.77
2019-03-21T01:18:29.291Z,15.20
2019-03-21T01:23:15.536Z,14.53
2019-03-21T01:28:01.813Z,12.87
2019-03-21T01:32:48.156Z,12.17
2019-03-21T01:37:34.569Z,10.10
2019-03-21T01:42:20.866Z,9.57
2019-03-21T01:47:07.251Z,10.57
2019-03-21T01:51:53.628Z,13.17
2019-03-21T01:56:40.167Z,11.57
2019-03-21T02:01:26.374Z,6.73
2019-03-21T02:06:12.729Z,7.63
2019-03-21T02:10:58.937Z,12.23
2019-03-21T02:15:46.501Z,13.73
2019-03-21T02:20:32.932Z,15.50
2019-03-21T02:25:24.528Z,12.90
2019-03-21T02:30:13.893Z,13.40
2019-03-21T02:35:00.418Z,12.60
2019-03-21T02:39:58.783Z,13.97
2019-03-21T02:44:35.147Z,11.97
2019-03-21T02:49:21.340Z,14.43
2019-03-21T02:54:07.576Z,8.30
2019-03-21T02:58:53.814Z,11.57
2019-03-21T03:03:40.028Z,11.60
2019-03-21T03:08:26.274Z,12.67
2019-03-21T03:13:12.575Z,11.10
2019-03-21T03:17:58.898Z,15.77
2019-03-21T03:22:45.255Z,10.97
2019-03-21T03:27:31.508Z,10.13
2019-03-21T03:32:17.734Z,11.77
2019-03-21T03:37:03.931Z,10.97
2019-03-21T03:41:50.292Z,11.80
2019-03-21T03:46:36.514Z,10.73
2019-03-21T03:51:22.750Z,14.47
2019-03-21T03:56:09.107Z,9.53
2019-03-21T04:00:55.624Z,12.90
2019-03-21T04:05:41.987Z,15.53
2019-03-21T04:10:30.987Z,8.87
2019-03-21T04:15:17.252Z,12.53
2019-03-21T04:20:03.491Z,11.60
2019-03-21T04:24:49.698Z,13.40
2019-03-21T04:29:35.959Z,13.47
2019-03-21T04:34:22.156Z,10.33
2019-03-21T04:39:09.955Z,14.03
2019-03-21T04:43:56.214Z,12.03
2019-03-21T04:48:42.464Z,6.80
2019-03-21T04:53:28.742Z,10.80
2019-03-21T04:58:14.990Z,8.30
2019-03-21T05:03:02.259Z,11.37
2019-03-21T05:07:48.587Z,8.70
2019-03-21T05:12:34.843Z,9.67
2019-03-21T05:17:21.731Z,6.83
2019-03-21T05:22:08.002Z,11.37
2019-03-21T05:26:54.263Z,6.43
2019-03-21T05:31:41.030Z,8.03
2019-03-21T05:36:27.608Z,7.73
2019-03-21T05:41:13.909Z,9.13
2019-03-21T05:46:00.205Z,6.87
2019-03-21T05:50:46.561Z,12.00
2019-03-21T05:55:32.802Z,14.67
2019-03-21T06:00:23.123Z,12.23
2019-03-21T06:05:09.503Z,15.40
2019-03-21T06:09:55.727Z,18.97
2019-03-21T06:14:45.620Z,13.13
2019-03-21T06:19:48.889Z,12.90
2019-03-21T06:25:04.798Z,13.60
2019-03-21T06:29:51.103Z,13.83
2019-03-21T06:34:37.602Z,16.00
2019-03-21T06:39:23.993Z,22.67
2019-03-21T06:44:10.271Z,22.57
2019-03-21T06:48:56.592Z,17.37
2019-03-21T06:53:42.905Z,22.43
2019-03-21T06:58:29.111Z,25.70
2019-03-21T07:03:16.541Z,19.57
2019-03-21T07:08:02.947Z,21.50
2019-03-21T07:12:49.277Z,28.00
2019-03-21T07:17:35.550Z,25.27
2019-03-21T07:22:21.829Z,33.70
2019-03-21T07:27:08.260Z,25.70
2019-03-21T07:31:54.662Z,26.83
2019-03-21T07:36:41.258Z,31.17
2019-03-21T07:41:27.969Z,24.37
2019-03-21T07:46:14.335Z,27.20
2019-03-21T07:51:19.466Z,23.37
2019-03-21T07:56:06.117Z,18.47
2019-03-21T08:00:52.471Z,18.30
2019-03-21T08:05:40.583Z,20.93
2019-03-21T08:10:26.766Z,16.50
2019-03-21T08:15:13.794Z,18.90
2019-03-21T08:20:00.331Z,23.97
2019-03-21T08:24:46.845Z,23.60
2019-03-21T08:29:33.099Z,17.80
2019-03-21T08:34:19.620Z,24.87
2019-03-21T08:39:08.632Z,17.80
2019-03-21T08:43:54.924Z,12.93
2019-03-21T08:48:41.318Z,12.73
2019-03-21T08:53:27.897Z,14.83
2019-03-21T08:58:14.969Z,9.03
2019-03-21T09:03:01.279Z,10.90
2019-03-21T09:07:47.748Z,7.73
2019-03-21T09:12:34.096Z,7.67
2019-03-21T09:17:20.483Z,7.37
2019-03-21T09:22:07.307Z,8.23
2019-03-21T09:26:53.903Z,12.57
2019-03-21T09:31:40.409Z,8.13
2019-03-21T09:36:26.715Z,9.47
2019-03-21T09:41:13.213Z,6.80
2019-03-21T09:45:59.591Z,8.07
2019-03-21T09:50:45.904Z,13.07
2019-03-21T09:55:32.445Z,10.37
2019-03-21T10:00:28.803Z,10.97
2019-03-21T10:05:15.353Z,7.77
2019-03-21T10:10:01.893Z,10.13
2019-03-21T10:14:48.368Z,19.57
2019-03-21T10:19:34.869Z,6.53
2019-03-21T10:24:21.201Z,9.17
2019-03-21T10:29:07.748Z,15.23
2019-03-21T10:33:54.004Z,6.80
2019-03-21T10:38:40.333Z,10.90
2019-03-21T10:43:26.580Z,6.53
2019-03-21T10:48:12.924Z,8.13
2019-03-21T10:52:59.764Z,9.70
2019-03-21T10:57:45.985Z,7.80
2019-03-21T11:02:32.533Z,7.80
2019-03-21T11:07:16.318Z,8.28
2019-03-21T11:12:02.646Z,7.97
2019-03-21T11:16:49.045Z,7.03
2019-03-21T11:21:35.510Z,12.30
2019-03-21T11:26:22.006Z,6.90
2019-03-21T11:31:08.700Z,8.50
2019-03-21T11:35:55.130Z,7.43
2019-03-21T11:40:41.592Z,7.97
2019-03-21T11:45:28.220Z,10.70
2019-03-21T11:50:14.581Z,8.33
2019-03-21T11:55:00.925Z,10.23
2019-03-21T11:59:51.933Z,10.40
2019-03-21T12:04:35.351Z,6.65
2019-03-21T12:09:22.044Z,9.55
2019-03-21T12:14:08.461Z,7.58
2019-03-21T12:18:55.292Z,6.05
2019-03-21T12:23:41.511Z,8.05
2019-03-21T12:28:28.143Z,7.33
2019-03-21T12:33:14.500Z,6.78
2019-03-21T12:38:00.851Z,10.45
2019-03-21T12:42:47.312Z,8.73
2019-03-21T12:47:34.355Z,7.72
2019-03-21T12:52:20.711Z,6.97
2019-03-21T12:57:07.193Z,9.43
2019-03-21T13:01:53.603Z,9.35
2019-03-21T13:06:39.819Z,6.53
2019-03-21T13:11:26.299Z,7.15
2019-03-21T13:16:12.940Z,7.87
2019-03-21T13:20:59.376Z,7.00
2019-03-21T13:25:46.415Z,7.37
2019-03-21T13:30:33.106Z,6.60
2019-03-21T13:35:19.454Z,7.92
2019-03-21T13:40:06.949Z,6.62
2019-03-21T13:44:53.479Z,8.48
2019-03-21T13:49:39.785Z,11.78
2019-03-21T13:54:26.783Z,6.17
2019-03-21T13:59:15.862Z,6.75
2019-03-21T14:04:02.520Z,7.75
2019-03-21T14:08:49.184Z,12.37
2019-03-21T14:13:35.572Z,7.20
2019-03-21T14:18:22.272Z,6.92
2019-03-21T14:23:17.088Z,7.47
2019-03-21T14:27:58.564Z,6.85
2019-03-21T14:32:45.160Z,8.28
2019-03-21T14:37:31.557Z,9.08
2019-03-21T14:42:18.048Z,8.35
2019-03-21T14:47:04.305Z,6.28
2019-03-21T14:51:51.922Z,9.75
2019-03-21T14:56:38.258Z,8.33
2019-03-21T15:01:24.957Z,8.50
2019-03-21T15:06:11.252Z,8.25
2019-03-21T15:10:57.571Z,9.63
2019-03-21T15:15:43.906Z,7.95
2019-03-21T15:20:30.484Z,9.05
2019-03-21T15:25:17.035Z,7.37
2019-03-21T15:30:03.478Z,7.80
2019-03-21T15:34:49.974Z,11.63
2019-03-21T15:39:36.203Z,8.68
2019-03-21T15:44:22.551Z,8.13
2019-03-21T15:49:08.941Z,20.90
2019-03-21T15:53:56.735Z,9.15
2019-03-21T15:58:43.289Z,11.60
2019-03-21T16:03:29.800Z,12.88
2019-03-21T16:08:16.327Z,10.65
2019-03-21T16:13:02.783Z,10.38
2019-03-21T16:17:49.238Z,11.85
2019-03-21T16:22:35.570Z,9.48
2019-03-21T16:27:21.797Z,8.58
2019-03-21T16:32:08.532Z,9.10
2019-03-21T16:36:55.246Z,13.00
2019-03-21T16:41:41.614Z,11.88
2019-03-21T16:46:28.675Z,15.48
2019-03-21T16:51:15.385Z,14.67
2019-03-21T16:56:01.913Z,22.47
2019-03-21T17:00:48.340Z,12.57
2019-03-21T17:05:34.808Z,12.87
2019-03-21T17:10:21.187Z,10.63
2019-03-21T17:15:07.934Z,11.20
2019-03-21T17:19:54.352Z,12.47
2019-03-21T17:24:41.219Z,14.17
2019-03-21T17:29:28.057Z,17.90
2019-03-21T17:34:14.680Z,11.73
2019-03-21T17:39:01.255Z,16.13
2019-03-21T17:43:47.552Z,17.80
2019-03-21T17:48:34.235Z,19.30
2019-03-21T17:53:20.811Z,18.13
2019-03-21T17:58:07.152Z,19.57
2019-03-21T18:02:53.735Z,15.07
2019-03-21T18:07:40.338Z,18.70
2019-03-21T18:12:26.769Z,16.00
2019-03-21T18:17:13.507Z,18.90
2019-03-21T18:21:59.990Z,19.60
2019-03-21T18:26:46.487Z,18.77
2019-03-21T18:31:33.082Z,20.40
2019-03-21T18:36:22.344Z,18.10
2019-03-21T18:41:08.711Z,18.67
2019-03-21T18:45:55.135Z,20.43
2019-03-21T18:50:41.472Z,21.90
2019-03-21T18:55:27.834Z,20.20
2019-03-21T19:00:15.002Z,22.17
2019-03-21T19:05:01.420Z,22.57
2019-03-21T19:09:47.726Z,27.33
2019-03-21T19:14:34.271Z,24.77
2019-03-21T19:19:20.595Z,26.53
2019-03-21T19:24:06.854Z,27.63
2019-03-21T19:28:53.438Z,19.83
2019-03-21T19:33:39.853Z,26.70
2019-03-21T19:38:26.339Z,24.97
2019-03-21T19:43:12.819Z,24.33
2019-03-21T19:47:59.276Z,22.93
2019-03-21T19:52:45.904Z,27.27
2019-03-21T19:57:32.314Z,23.97
2019-03-21T20:02:19.390Z,20.43
2019-03-21T20:07:13.047Z,24.37
2019-03-21T20:12:02.691Z,27.23
2019-03-21T20:16:49.876Z,27.03
2019-03-21T20:21:47.312Z,27.43
2019-03-21T20:26:26.223Z,23.03
2019-03-21T20:31:12.693Z,22.00
2019-03-21T20:35:59.071Z,26.50
2019-03-21T20:40:45.643Z,23.30
2019-03-21T20:45:32.388Z,29.20
2019-03-21T20:50:19.477Z,20.20
2019-03-21T20:55:06.889Z,21.40
2019-03-21T20:59:53.536Z,23.30
2019-03-21T21:04:40.163Z,17.87
2019-03-21T21:09:26.968Z,19.40
2019-03-21T21:14:13.769Z,18.93
2019-03-21T21:19:00.258Z,17.10
2019-03-21T21:23:46.757Z,18.23
2019-03-21T21:28:33.102Z,18.63
2019-03-21T21:33:19.726Z,20.47
2019-03-21T21:38:06.298Z,18.93
2019-03-21T21:42:52.830Z,22.40
2019-03-21T21:47:39.398Z,21.83
2019-03-21T21:52:25.857Z,21.57
2019-03-21T21:57:12.412Z,24.20
2019-03-21T22:01:58.909Z,23.13
2019-03-21T22:06:46.529Z,22.77
2019-03-21T22:11:32.946Z,17.57
2019-03-21T22:16:19.372Z,16.60
2019-03-21T22:21:05.950Z,22.07
2019-03-21T22:25:52.537Z,20.00
2019-03-21T22:30:39.200Z,19.57
2019-03-21T22:35:25.718Z,18.73
2019-03-21T22:40:12.211Z,16.30
2019-03-21T22:44:58.626Z,22.53
2019-03-21T22:49:44.925Z,20.97
2019-03-21T22:54:31.240Z,20.93
2019-03-21T22:59:17.718Z,17.60
2019-03-21T23:04:04.168Z,26.63
2019-03-21T23:08:50.649Z,22.23
2019-03-21T23:13:37.078Z,20.60
2019-03-21T23:18:23.390Z,22.03
2019-03-21T23:23:09.645Z,21.83
2019-03-21T23:27:56.001Z,21.93
2019-03-21T23:32:42.281Z,21.83
2019-03-21T23:37:28.624Z,21.63
2019-03-21T23:42:14.893Z,19.07
2019-03-21T23:47:01.224Z,20.70
2019-03-21T23:51:47.567Z,26.83
2019-03-21T23:56:33.978Z,25.17
